Time;durP1;ratioP1;P1;durP2;ratioP2;P2;SDS_P1;SDS_P2;PMS_P1;PMS_P2;Temp;Humidity;BMP_temperature;BMP_pressure;BME280_temperature;BME280_humidity;BME280_pressure;Samples;Min_cycle;Max_cycle;Signal;HPM_P1;HPM_P2
2023/06/23 00:01:31;;;;;;;146.02;139.23;;;17.80;99.90;;;;;;5042451;28;20040;-79
2023/06/23 00:03:58;;;;;;;139.85;133.38;;;17.80;99.90;;;;;;5014479;28;20054;-78
2023/06/23 00:06:25;;;;;;;150.40;143.50;;;17.80;99.90;;;;;;5045901;28;20047;-78
2023/06/23 00:08:50;;;;;;;153.55;146.32;;;17.70;99.90;;;;;;5045516;28;20053;-79
2023/06/23 00:11:16;;;;;;;150.05;142.70;;;17.70;99.90;;;;;;5020488;28;20047;-80
2023/06/23 00:13:42;;;;;;;156.77;149.50;;;17.70;99.90;;;;;;5036425;28;20048;-78
2023/06/23 00:16:08;;;;;;;137.82;131.32;;;17.70;99.90;;;;;;5025926;28;20052;-77
2023/06/23 00:18:39;;;;;;;139.57;132.77;;;17.70;99.90;;;;;;5028793;28;20116;-78
2023/06/23 00:21:07;;;;;;;128.55;122.50;;;17.70;99.90;;;;;;5032248;28;20051;-79
2023/06/23 00:23:33;;;;;;;128.13;121.78;;;17.70;99.90;;;;;;5028812;28;20045;-78
2023/06/23 00:26:00;;;;;;;131.32;125.07;;;17.70;99.90;;;;;;5031757;28;20044;-80
2023/06/23 00:28:25;;;;;;;128.93;122.65;;;17.70;99.90;;;;;;5039336;28;20132;-79
2023/06/23 00:30:52;;;;;;;146.25;139.32;;;17.60;99.90;;;;;;5028161;28;20115;-79
2023/06/23 00:33:18;;;;;;;146.57;139.63;;;17.60;99.90;;;;;;5023710;28;20045;-79
2023/06/23 00:35:44;;;;;;;156.50;149.18;;;17.60;99.90;;;;;;5040258;28;20453;-79
2023/06/23 00:38:10;;;;;;;147.15;140.05;;;17.60;99.90;;;;;;5024279;28;20052;-78
2023/06/23 00:40:36;;;;;;;155.43;147.75;;;17.60;99.90;;;;;;5022514;28;20119;-78
2023/06/23 00:43:02;;;;;;;169.93;161.95;;;17.60;99.90;;;;;;5039527;28;20038;-79
2023/06/23 00:45:28;;;;;;;215.75;205.63;;;17.60;99.90;;;;;;5045842;28;20492;-79
2023/06/23 00:47:55;;;;;;;216.40;206.07;;;17.60;99.90;;;;;;5034950;28;20056;-79
2023/06/23 00:50:23;;;;;;;210.73;200.85;;;17.60;99.90;;;;;;5039885;28;20057;-79
2023/06/23 00:52:52;;;;;;;220.38;210.27;;;17.50;99.90;;;;;;5041811;28;20090;-79
2023/06/23 00:55:27;;;;;;;232.23;221.45;;;17.60;99.90;;;;;;5039002;28;20053;-79
2023/06/23 00:57:55;;;;;;;217.20;207.07;;;17.50;99.90;;;;;;5055076;28;20033;-78
2023/06/23 01:00:21;;;;;;;226.45;216.05;;;17.50;99.90;;;;;;5010085;28;20045;-78
2023/06/23 01:02:52;;;;;;;211.15;201.13;;;17.50;99.90;;;;;;5048945;28;20389;-78
2023/06/23 01:05:30;;;;;;;225.57;215.25;;;17.50;99.90;;;;;;5026201;28;21401;-79
2023/06/23 01:08:06;;;;;;;200.32;190.82;;;17.50;99.90;;;;;;5038028;28;20103;-79
2023/06/23 01:10:42;;;;;;;212.10;202.32;;;17.50;99.90;;;;;;5030079;28;20049;-78
2023/06/23 01:13:08;;;;;;;205.70;196.05;;;17.50;99.90;;;;;;5073493;28;20049;-77
2023/06/23 01:15:38;;;;;;;223.25;212.57;;;17.40;99.90;;;;;;5053853;28;20046;-78
2023/06/23 01:18:15;;;;;;;205.02;195.82;;;17.50;99.90;;;;;;5044965;28;20037;-78
2023/06/23 01:20:45;;;;;;;215.15;205.15;;;17.40;99.90;;;;;;5042975;28;20044;-78
2023/06/23 01:23:45;;;;;;;230.80;220.38;;;17.40;99.90;;;;;;5032889;28;20786;-78
2023/06/23 01:26:40;;;;;;;229.95;219.27;;;17.30;99.90;;;;;;5030362;28;20053;-79
2023/06/23 01:29:09;;;;;;;208.27;198.68;;;17.30;99.90;;;;;;5040462;28;20059;-79
2023/06/23 01:31:55;;;;;;;197.20;187.95;;;17.30;99.90;;;;;;5035992;28;20448;-79
2023/06/23 01:34:25;;;;;;;190.63;181.57;;;17.30;99.90;;;;;;5030576;28;20053;-78
2023/06/23 01:36:56;;;;;;;197.23;187.98;;;17.20;99.90;;;;;;5045086;28;20378;-80
2023/06/23 01:39:23;;;;;;;185.07;176.20;;;17.20;99.90;;;;;;5037652;28;20074;-79
2023/06/23 01:42:03;;;;;;;202.70;193.07;;;17.20;99.90;;;;;;5037279;28;20574;-78
2023/06/23 01:44:30;;;;;;;206.80;197.13;;;17.20;99.90;;;;;;5043582;28;20587;-79
2023/06/23 01:47:01;;;;;;;190.05;180.82;;;17.20;99.90;;;;;;5034817;28;20048;-79
2023/06/23 01:49:31;;;;;;;204.57;194.90;;;17.20;99.90;;;;;;5068756;28;20553;-78
2023/06/23 01:51:57;;;;;;;272.98;260.35;;;17.10;99.90;;;;;;5029132;28;20045;-78
2023/06/23 01:54:24;;;;;;;283.65;270.33;;;17.10;99.90;;;;;;5039854;28;20056;-79
2023/06/23 01:56:52;;;;;;;282.08;268.98;;;17.10;99.90;;;;;;5044290;28;20171;-79
2023/06/23 01:59:20;;;;;;;305.40;290.88;;;17.00;99.90;;;;;;5062954;28;20033;-78
2023/06/23 02:01:47;;;;;;;301.52;287.45;;;17.00;99.90;;;;;;5074209;28;20048;-78
2023/06/23 02:04:15;;;;;;;300.88;286.70;;;17.00;99.90;;;;;;5046781;28;20053;-78
2023/06/23 02:06:44;;;;;;;310.60;296.25;;;17.00;99.90;;;;;;5036398;28;20088;-79
2023/06/23 02:09:14;;;;;;;309.08;294.60;;;17.00;99.90;;;;;;5061703;28;20134;-78
2023/06/23 02:11:40;;;;;;;305.73;291.42;;;16.90;99.90;;;;;;5015695;28;20580;-78
2023/06/23 02:14:09;;;;;;;300.67;286.75;;;17.00;99.90;;;;;;5045837;28;20045;-80
2023/06/23 02:16:35;;;;;;;294.98;281.23;;;17.00;99.90;;;;;;5040956;28;20179;-80
2023/06/23 02:19:02;;;;;;;280.35;267.58;;;17.00;99.90;;;;;;5028486;28;20041;-77
2023/06/23 02:21:29;;;;;;;265.20;252.82;;;17.00;99.90;;;;;;5056144;28;20140;-78
2023/06/23 02:23:56;;;;;;;253.43;242.07;;;17.00;99.90;;;;;;5028671;28;20044;-79
2023/06/23 02:26:25;;;;;;;276.42;263.60;;;16.90;99.90;;;;;;5031228;28;20452;-78
2023/06/23 02:28:52;;;;;;;258.35;246.57;;;16.90;99.90;;;;;;5040423;28;20072;-78
2023/06/23 02:31:20;;;;;;;257.90;246.07;;;16.90;99.90;;;;;;5020921;28;20037;-79
2023/06/23 02:33:46;;;;;;;244.85;233.73;;;16.90;99.90;;;;;;5038028;28;20120;-77
2023/06/23 02:36:17;;;;;;;218.27;208.40;;;16.90;99.90;;;;;;5046094;28;20553;-78
2023/06/23 02:38:43;;;;;;;186.93;178.63;;;16.90;99.90;;;;;;5043053;28;20037;-77
2023/06/23 02:41:12;;;;;;;166.15;158.45;;;16.90;99.90;;;;;;5041910;28;20114;-78
2023/06/23 02:43:54;;;;;;;178.20;170.38;;;16.90;99.90;;;;;;5038156;28;20422;-79
2023/06/23 02:46:22;;;;;;;183.05;174.65;;;16.80;99.90;;;;;;5063871;28;20076;-77
2023/06/23 02:48:51;;;;;;;210.23;200.77;;;16.90;99.90;;;;;;5024651;28;20493;-78
2023/06/23 02:51:21;;;;;;;200.07;191.18;;;16.80;99.90;;;;;;5038326;28;20106;-78
2023/06/23 02:54:04;;;;;;;205.43;196.00;;;16.80;99.90;;;;;;5046354;28;20049;-78
2023/06/23 02:56:32;;;;;;;180.95;172.95;;;16.80;99.90;;;;;;5025451;28;20552;-78
2023/06/23 02:59:05;;;;;;;165.90;158.50;;;16.80;99.90;;;;;;5057323;28;20045;-78
2023/06/23 03:01:37;;;;;;;135.45;129.00;;;16.80;99.90;;;;;;5038039;28;20107;-79
2023/06/23 03:04:03;;;;;;;133.55;127.38;;;16.80;99.90;;;;;;5044791;28;20076;-78
2023/06/23 03:06:34;;;;;;;134.48;128.07;;;16.80;99.90;;;;;;5038618;28;20045;-78
2023/06/23 03:09:02;;;;;;;135.95;129.52;;;16.70;99.90;;;;;;5041333;28;20044;-78
2023/06/23 03:11:28;;;;;;;148.77;141.98;;;16.80;99.90;;;;;;5036927;28;20059;-77
2023/06/23 03:13:54;;;;;;;163.32;155.63;;;16.70;99.90;;;;;;5053705;28;20049;-77
2023/06/23 03:16:32;;;;;;;168.50;160.77;;;16.70;99.90;;;;;;5031911;28;20455;-77
2023/06/23 03:19:16;;;;;;;198.00;188.88;;;16.60;99.90;;;;;;5045606;28;20094;-77
2023/06/23 03:21:45;;;;;;;209.57;199.90;;;16.60;99.90;;;;;;5035534;28;20120;-77
2023/06/23 03:24:13;;;;;;;196.23;187.15;;;16.50;99.90;;;;;;5030246;28;20045;-78
2023/06/23 03:26:45;;;;;;;168.82;161.05;;;16.50;99.90;;;;;;5032381;28;20052;-77
2023/06/23 03:29:11;;;;;;;146.68;139.82;;;16.40;99.90;;;;;;5042584;28;20052;-77
2023/06/23 03:31:42;;;;;;;145.73;138.82;;;16.40;99.90;;;;;;5043211;28;20149;-78
2023/06/23 03:34:08;;;;;;;157.75;150.43;;;16.40;99.90;;;;;;5047533;28;20049;-77
2023/06/23 03:36:37;;;;;;;180.30;172.18;;;16.30;99.90;;;;;;5043296;28;20548;-77
2023/06/23 03:39:22;;;;;;;169.00;161.48;;;16.30;99.90;;;;;;5029800;28;20037;-78
2023/06/23 03:41:49;;;;;;;207.43;197.90;;;16.20;99.90;;;;;;5060392;28;20041;-78
2023/06/23 03:44:24;;;;;;;221.75;211.38;;;16.10;99.90;;;;;;5031063;28;20125;-77
2023/06/23 03:46:55;;;;;;;296.13;282.20;;;16.10;99.90;;;;;;5036130;28;20060;-77
2023/06/23 03:49:26;;;;;;;300.25;286.13;;;16.00;99.90;;;;;;5043896;28;20051;-77
2023/06/23 03:51:55;;;;;;;262.77;250.43;;;16.00;99.90;;;;;;5028123;28;20084;-79
2023/06/23 03:54:22;;;;;;;320.77;305.58;;;15.90;99.90;;;;;;5043935;28;20103;-77
2023/06/23 03:56:50;;;;;;;302.83;288.75;;;15.90;99.90;;;;;;5029774;28;20040;-77
2023/06/23 03:59:17;;;;;;;306.48;292.10;;;15.90;99.90;;;;;;5060177;28;20076;-77
2023/06/23 04:01:44;;;;;;;273.92;261.13;;;15.90;99.90;;;;;;5066752;28;20531;-77
2023/06/23 04:04:12;;;;;;;286.08;272.83;;;15.90;99.90;;;;;;5058140;28;20056;-77
2023/06/23 04:06:41;;;;;;;288.77;275.48;;;15.80;99.90;;;;;;5038936;28;20044;-77
2023/06/23 04:09:09;;;;;;;274.08;261.35;;;15.80;99.90;;;;;;5037792;28;20401;-77
2023/06/23 04:11:37;;;;;;;283.75;270.70;;;15.80;99.90;;;;;;5039621;28;20106;-77
2023/06/23 04:14:04;;;;;;;278.13;265.35;;;15.80;99.90;;;;;;5044847;28;20045;-77
2023/06/23 04:16:33;;;;;;;273.95;261.30;;;15.80;99.90;;;;;;5032398;28;20052;-77
2023/06/23 04:19:01;;;;;;;280.73;267.45;;;15.80;99.90;;;;;;5027530;28;20102;-76
2023/06/23 04:21:28;;;;;;;265.73;253.50;;;15.80;99.90;;;;;;5016978;28;20049;-77
2023/06/23 04:23:56;;;;;;;260.52;248.10;;;15.90;99.90;;;;;;5034711;28;20666;-77
2023/06/23 04:26:22;;;;;;;272.40;259.80;;;15.90;99.90;;;;;;5042707;28;20517;-76
2023/06/23 04:28:51;;;;;;;274.30;261.63;;;15.90;99.90;;;;;;5028768;28;20080;-76
2023/06/23 04:31:21;;;;;;;279.38;266.25;;;16.00;99.90;;;;;;5039364;28;20049;-76
2023/06/23 04:33:46;;;;;;;284.52;271.00;;;16.00;99.90;;;;;;5018467;28;20045;-76
2023/06/23 04:36:14;;;;;;;275.70;262.77;;;16.10;99.90;;;;;;5025239;28;20047;-76
2023/06/23 04:38:47;;;;;;;260.55;248.57;;;16.20;99.90;;;;;;5039196;28;20037;-76
2023/06/23 04:41:23;;;;;;;227.68;217.20;;;16.20;99.90;;;;;;5043631;28;20397;-77
2023/06/23 04:43:52;;;;;;;209.00;199.05;;;16.20;99.90;;;;;;5034105;28;20400;-77
2023/06/23 04:46:25;;;;;;;190.23;181.43;;;16.30;99.90;;;;;;5053493;28;20048;-77
2023/06/23 04:48:58;;;;;;;122.78;116.65;;;16.30;99.90;;;;;;5039938;28;20045;-77
2023/06/23 04:51:29;;;;;;;114.65;108.60;;;16.30;99.90;;;;;;5027914;28;20049;-78
2023/06/23 04:54:00;;;;;;;149.50;142.35;;;16.40;99.90;;;;;;5031015;28;20041;-77
2023/06/23 04:56:32;;;;;;;148.50;141.18;;;16.40;99.90;;;;;;5041525;28;20512;-78
2023/06/23 04:59:02;;;;;;;250.45;238.43;;;16.50;99.90;;;;;;5031272;28;20049;-78
2023/06/23 05:01:29;;;;;;;197.48;187.73;;;16.50;99.90;;;;;;5037622;28;20508;-77
2023/06/23 05:03:58;;;;;;;298.83;284.75;;;16.60;99.90;;;;;;5034658;28;20053;-77
2023/06/23 05:06:25;;;;;;;322.15;306.60;;;16.80;99.90;;;;;;5034539;28;20052;-78
2023/06/23 05:08:53;;;;;;;499.13;472.98;;;16.90;99.90;;;;;;5015385;28;20049;-77
2023/06/23 05:11:21;;;;;;;466.08;442.25;;;17.00;99.90;;;;;;5027328;28;20053;-78
2023/06/23 05:13:48;;;;;;;524.00;496.55;;;17.10;99.90;;;;;;5027766;28;20047;-77
2023/06/23 05:16:16;;;;;;;527.60;499.08;;;17.30;99.90;;;;;;5036145;28;20041;-79
2023/06/23 05:18:45;;;;;;;446.27;423.80;;;17.30;99.90;;;;;;5039620;28;20124;-79
2023/06/23 05:21:13;;;;;;;511.25;484.30;;;17.30;99.90;;;;;;5036096;28;20156;-78
2023/06/23 05:23:41;;;;;;;478.90;454.25;;;17.30;99.90;;;;;;5025205;28;20044;-78
2023/06/23 05:26:09;;;;;;;457.25;433.90;;;17.30;99.90;;;;;;5025695;28;20052;-78
2023/06/23 05:28:37;;;;;;;486.70;461.05;;;17.30;99.90;;;;;;5069209;28;20045;-78
2023/06/23 05:31:05;;;;;;;565.58;534.33;;;17.20;99.90;;;;;;5041956;28;20077;-78
2023/06/23 05:33:35;;;;;;;532.13;503.42;;;17.20;99.90;;;;;;5023428;28;20485;-78
2023/06/23 05:36:02;;;;;;;553.38;523.00;;;17.10;99.90;;;;;;5027697;28;20386;-78
2023/06/23 05:38:30;;;;;;;557.75;526.58;;;17.10;99.90;;;;;;5067976;28;20052;-79
2023/06/23 05:40:56;;;;;;;574.65;542.38;;;17.00;99.90;;;;;;5018356;28;20056;-80
2023/06/23 05:43:22;;;;;;;557.13;526.72;;;17.00;99.90;;;;;;5069398;28;20053;-78
2023/06/23 05:45:51;;;;;;;579.55;547.53;;;16.90;99.90;;;;;;5018492;28;20037;-78
2023/06/23 05:48:29;;;;;;;541.33;512.28;;;17.00;99.90;;;;;;5036840;28;20079;-78
2023/06/23 05:50:56;;;;;;;575.72;543.63;;;17.10;99.90;;;;;;5022183;28;20048;-78
2023/06/23 05:53:25;;;;;;;574.70;542.95;;;17.20;99.90;;;;;;5039200;28;20508;-80
2023/06/23 05:55:55;;;;;;;558.33;527.75;;;17.40;99.90;;;;;;5023486;28;20116;-76
2023/06/23 05:58:24;;;;;;;501.23;474.95;;;17.70;99.90;;;;;;5059966;28;20041;-78
2023/06/23 06:00:53;;;;;;;519.53;492.00;;;17.90;99.90;;;;;;5041070;28;20049;-77
2023/06/23 06:03:22;;;;;;;276.15;263.42;;;18.10;99.90;;;;;;5026440;28;20132;-78
2023/06/23 06:05:54;;;;;;;250.05;238.55;;;18.30;99.90;;;;;;5037701;28;20042;-77
2023/06/23 06:08:22;;;;;;;168.63;160.85;;;18.50;99.90;;;;;;5022620;28;20049;-79
2023/06/23 06:10:50;;;;;;;97.60;92.50;;;18.70;99.90;;;;;;5042696;28;20052;-79
2023/06/23 06:13:16;;;;;;;104.55;99.32;;;18.90;99.90;;;;;;5036137;28;20065;-78
2023/06/23 06:15:44;;;;;;;116.75;111.15;;;19.00;99.90;;;;;;5032955;28;20049;-76
2023/06/23 06:18:12;;;;;;;89.85;85.47;;;19.10;99.90;;;;;;5044915;28;20045;-78
2023/06/23 06:20:41;;;;;;;79.72;75.60;;;19.30;99.90;;;;;;5051304;28;20121;-78
2023/06/23 06:23:08;;;;;;;75.18;71.43;;;19.50;99.90;;;;;;5035424;28;20116;-79
2023/06/23 06:25:36;;;;;;;79.22;75.20;;;19.70;99.90;;;;;;5025812;28;20513;-79
2023/06/23 06:28:06;;;;;;;104.43;99.47;;;19.90;99.90;;;;;;5041512;28;20091;-80
2023/06/23 06:30:32;;;;;;;116.82;111.20;;;20.40;99.90;;;;;;5039672;28;20052;-79
2023/06/23 06:33:00;;;;;;;160.15;152.52;;;21.10;99.90;;;;;;5027741;28;20041;-79
2023/06/23 06:35:27;;;;;;;115.32;109.45;;;21.80;99.90;;;;;;5043066;28;20081;-79
2023/06/23 06:37:56;;;;;;;87.32;82.82;;;22.80;99.90;;;;;;5045592;28;20046;-77
2023/06/23 06:40:23;;;;;;;243.85;232.30;;;23.70;99.90;;;;;;5044952;28;20464;-79
2023/06/23 06:42:49;;;;;;;201.88;192.35;;;24.30;99.90;;;;;;5058893;28;20082;-80
2023/06/23 06:45:15;;;;;;;281.55;268.50;;;24.70;99.90;;;;;;5015993;28;20046;-79
2023/06/23 06:47:44;;;;;;;250.45;238.70;;;24.90;99.90;;;;;;5014581;28;20045;-80
2023/06/23 06:50:15;;;;;;;377.90;358.95;;;25.00;99.90;;;;;;5015456;28;20064;-79
2023/06/23 06:52:43;;;;;;;148.00;141.10;;;25.10;99.90;;;;;;5074500;28;20046;-79
2023/06/23 06:55:17;;;;;;;68.18;64.75;;;25.30;99.90;;;;;;5024888;28;20125;-77
2023/06/23 06:57:47;;;;;;;77.10;73.35;;;25.50;99.90;;;;;;5055328;28;20120;-79
2023/06/23 07:00:18;;;;;;;83.05;78.93;;;25.60;99.90;;;;;;5039508;28;20497;-78
2023/06/23 07:02:45;;;;;;;139.65;133.48;;;25.60;99.90;;;;;;5047600;28;20037;-79
2023/06/23 07:05:13;;;;;;;137.45;131.10;;;25.40;99.90;;;;;;5046545;28;20444;-80
2023/06/23 07:07:39;;;;;;;101.65;96.60;;;25.50;99.90;;;;;;5040932;28;20436;-81
2023/06/23 07:10:05;;;;;;;113.47;108.38;;;25.80;99.90;;;;;;5036161;28;20052;-78
2023/06/23 07:12:32;;;;;;;84.07;80.03;;;26.20;99.90;;;;;;5044826;28;20471;-80
2023/06/23 07:14:57;;;;;;;66.78;63.45;;;26.40;99.90;;;;;;5031175;28;20505;-80
2023/06/23 07:17:23;;;;;;;58.67;55.83;;;26.40;99.90;;;;;;5044699;28;20044;-79
2023/06/23 07:19:49;;;;;;;29.42;27.60;;;26.40;99.90;;;;;;5022276;28;20382;-78
2023/06/23 07:22:15;;;;;;;46.92;44.42;;;26.40;98.30;;;;;;5041973;28;20080;-80
2023/06/23 07:24:41;;;;;;;42.58;40.10;;;26.50;98.20;;;;;;5037480;28;20095;-79
2023/06/23 07:27:08;;;;;;;52.50;49.90;;;26.60;98.60;;;;;;5047627;28;20040;-80
2023/06/23 07:29:34;;;;;;;61.40;58.22;;;26.80;99.10;;;;;;5031024;28;20122;-80
2023/06/23 07:32:01;;;;;;;67.53;63.83;;;26.90;97.00;;;;;;5045153;28;20103;-78
2023/06/23 07:34:28;;;;;;;44.80;42.17;;;27.00;96.10;;;;;;5041332;28;20049;-80
2023/06/23 07:36:54;;;;;;;54.97;52.30;;;27.00;95.70;;;;;;5024588;28;20575;-81
2023/06/23 07:39:19;;;;;;;87.00;82.93;;;26.90;96.40;;;;;;5057287;28;20044;-77
2023/06/23 07:41:45;;;;;;;58.67;55.50;;;27.00;97.40;;;;;;5046938;28;20083;-78
2023/06/23 07:44:11;;;;;;;201.10;192.25;;;27.00;95.60;;;;;;5045944;28;20078;-79
2023/06/23 07:46:36;;;;;;;206.82;197.65;;;26.90;95.80;;;;;;5030731;28;20079;-80
2023/06/23 07:49:02;;;;;;;32.92;30.85;;;27.20;95.20;;;;;;5042999;28;20041;-79
2023/06/23 07:51:28;;;;;;;93.60;89.22;;;27.30;94.50;;;;;;5029533;28;20048;-79
2023/06/23 07:53:54;;;;;;;32.15;30.35;;;27.30;93.80;;;;;;5039002;28;20104;-79
2023/06/23 07:56:19;;;;;;;67.13;63.78;;;27.30;94.80;;;;;;5031093;28;20434;-79
2023/06/23 07:58:45;;;;;;;133.45;127.30;;;27.50;95.90;;;;;;5045832;28;20126;-77
2023/06/23 08:01:12;;;;;;;66.30;62.92;;;27.50;97.20;;;;;;5030044;28;20080;-79
2023/06/23 08:03:38;;;;;;;86.72;82.45;;;27.60;97.20;;;;;;5041678;28;20064;-79
2023/06/23 08:06:03;;;;;;;64.65;61.45;;;27.40;96.60;;;;;;5026623;28;20390;-78
2023/06/23 08:08:29;;;;;;;83.88;79.90;;;27.40;96.90;;;;;;5047079;28;20053;-81
2023/06/23 08:10:55;;;;;;;234.05;223.10;;;27.40;96.80;;;;;;5038833;28;20784;-80
2023/06/23 08:13:20;;;;;;;50.17;47.38;;;27.40;95.80;;;;;;5040643;28;20053;-80
2023/06/23 08:15:47;;;;;;;101.07;96.40;;;27.40;96.30;;;;;;5045745;28;20063;-80
2023/06/23 08:18:12;;;;;;;87.03;82.95;;;27.40;95.60;;;;;;5046080;28;20037;-79
2023/06/23 08:20:38;;;;;;;55.95;53.17;;;27.30;94.80;;;;;;5039782;28;20397;-79
2023/06/23 08:23:04;;;;;;;76.80;73.10;;;27.20;94.40;;;;;;5040704;28;20476;-79
2023/06/23 08:25:29;;;;;;;233.32;223.00;;;27.20;95.20;;;;;;5067256;28;20088;-79
2023/06/23 08:27:55;;;;;;;264.20;252.27;;;27.50;95.40;;;;;;5040485;28;20080;-79
2023/06/23 08:30:30;;;;;;;190.43;181.32;;;27.60;92.80;;;;;;5042059;28;20512;-79
2023/06/23 08:32:57;;;;;;;386.85;367.45;;;27.40;92.50;;;;;;5028887;28;20049;-78
2023/06/23 08:35:23;;;;;;;595.83;561.08;;;27.30;92.10;;;;;;5041907;28;20552;-80
2023/06/23 08:37:49;;;;;;;553.38;522.85;;;27.10;90.90;;;;;;5044405;28;20116;-81
2023/06/23 08:40:14;;;;;;;587.83;554.80;;;27.00;90.30;;;;;;5015455;28;20041;-79
2023/06/23 08:42:41;;;;;;;384.15;364.60;;;27.10;90.00;;;;;;5026378;28;20405;-80
2023/06/23 08:45:08;;;;;;;289.17;275.83;;;27.20;90.50;;;;;;5039804;28;20049;-81
2023/06/23 08:47:45;;;;;;;396.35;375.98;;;27.10;90.90;;;;;;5019169;28;20486;-79
2023/06/23 08:50:11;;;;;;;576.92;543.95;;;27.00;91.50;;;;;;5025959;28;20124;-80
2023/06/23 08:52:38;;;;;;;271.00;258.15;;;27.00;90.70;;;;;;5030223;28;20061;-79
2023/06/23 08:55:04;;;;;;;550.65;519.92;;;26.90;91.10;;;;;;5035975;28;20060;-80
2023/06/23 08:57:30;;;;;;;109.43;104.28;;;26.90;90.60;;;;;;5044839;28;20056;-81
2023/06/23 08:59:57;;;;;;;350.58;332.42;;;27.10;92.30;;;;;;5041519;28;20046;-80
2023/06/23 09:02:23;;;;;;;332.75;315.98;;;27.30;92.30;;;;;;5023162;28;20048;-76
2023/06/23 09:04:49;;;;;;;382.80;362.48;;;27.30;92.70;;;;;;5037158;28;20425;-81
2023/06/23 09:07:14;;;;;;;514.60;486.10;;;27.30;92.70;;;;;;5022778;28;20060;-80
2023/06/23 09:09:45;;;;;;;564.20;532.20;;;27.40;92.10;;;;;;5025994;28;20351;-79
2023/06/23 09:12:11;;;;;;;540.33;510.67;;;27.50;92.10;;;;;;5045633;28;20057;-79
2023/06/23 09:14:38;;;;;;;421.90;399.92;;;27.70;92.10;;;;;;5037970;28;20052;-79
2023/06/23 09:17:04;;;;;;;588.15;554.15;;;27.80;93.10;;;;;;5059365;28;20048;-81
2023/06/23 09:19:33;;;;;;;578.67;545.38;;;28.00;92.80;;;;;;5041844;28;20041;-80
2023/06/23 09:21:59;;;;;;;425.77;404.00;;;28.10;91.20;;;;;;5044532;28;20397;-80
2023/06/23 09:24:38;;;;;;;589.45;555.38;;;27.90;86.30;;;;;;5021098;28;20106;-80
2023/06/23 09:27:04;;;;;;;532.03;502.90;;;27.80;89.10;;;;;;5034670;28;20060;-77
2023/06/23 09:29:30;;;;;;;530.90;500.63;;;27.80;87.90;;;;;;5055769;28;20481;-81
2023/06/23 09:31:58;;;;;;;251.82;239.80;;;27.70;88.30;;;;;;5034525;28;20102;-81
2023/06/23 09:34:26;;;;;;;408.95;386.75;;;27.60;88.20;;;;;;5042438;28;20523;-78
2023/06/23 09:37:04;;;;;;;164.82;157.25;;;27.50;86.50;;;;;;5054085;28;20048;-81
2023/06/23 09:39:34;;;;;;;328.35;311.05;;;27.40;87.60;;;;;;5042016;28;20053;-80
2023/06/23 09:41:59;;;;;;;302.80;286.33;;;27.40;89.80;;;;;;5025970;28;20119;-81
2023/06/23 09:44:33;;;;;;;157.27;149.50;;;27.40;90.60;;;;;;5024534;28;20148;-79
2023/06/23 09:47:03;;;;;;;95.18;90.68;;;27.50;90.10;;;;;;5049159;28;20041;-81
2023/06/23 09:49:36;;;;;;;314.90;299.15;;;27.40;88.70;;;;;;5062630;28;20079;-80
2023/06/23 09:52:01;;;;;;;383.38;362.88;;;27.30;89.50;;;;;;5059072;28;20048;-80
2023/06/23 09:54:41;;;;;;;265.13;249.55;;;27.00;90.70;;;;;;5042349;28;20406;-79
2023/06/23 09:57:18;;;;;;;851.25;791.55;;;27.00;90.60;;;;;;5043508;28;20125;-81
2023/06/23 09:59:45;;;;;;;331.02;315.20;;;26.80;91.90;;;;;;5045594;28;20516;-80
2023/06/23 10:02:26;;;;;;;685.08;640.25;;;26.60;90.80;;;;;;5044474;28;20051;-80
2023/06/23 10:05:00;;;;;;;333.23;313.02;;;26.30;91.90;;;;;;5080696;28;20065;-79
2023/06/23 10:07:27;;;;;;;479.67;449.10;;;26.50;92.10;;;;;;5042156;28;20547;-80
2023/06/23 10:10:04;;;;;;;583.35;549.55;;;26.40;92.20;;;;;;5032864;28;20049;-79
2023/06/23 10:12:30;;;;;;;802.85;748.72;;;26.40;93.30;;;;;;5040072;28;20424;-81
2023/06/23 10:14:57;;;;;;;109.70;104.65;;;26.50;93.00;;;;;;5018280;28;20996;-79
2023/06/23 10:17:23;;;;;;;814.55;759.80;;;26.50;92.60;;;;;;5039804;28;20413;-79
2023/06/23 10:19:51;;;;;;;454.50;429.27;;;26.20;93.90;;;;;;5037562;28;20045;-81
2023/06/23 10:22:19;;;;;;;727.10;681.10;;;26.20;93.20;;;;;;5040528;28;20045;-81
2023/06/23 10:24:47;;;;;;;497.60;469.48;;;26.30;93.50;;;;;;5042423;28;20052;-80
2023/06/23 10:27:28;;;;;;;681.60;639.25;;;26.40;92.60;;;;;;5039284;28;20080;-78
2023/06/23 10:29:59;;;;;;;640.40;600.65;;;26.50;93.40;;;;;;5068537;28;20091;-80
2023/06/23 10:32:30;;;;;;;67.93;64.72;;;26.40;93.30;;;;;;5020230;28;20120;-78
2023/06/23 10:34:57;;;;;;;374.40;355.45;;;26.40;93.10;;;;;;5015371;28;20062;-78
2023/06/23 10:37:26;;;;;;;104.57;99.70;;;26.50;92.30;;;;;;5043402;28;20045;-81
2023/06/23 10:39:57;;;;;;;294.98;281.20;;;26.50;91.60;;;;;;5034904;28;20478;-81
2023/06/23 10:42:24;;;;;;;539.25;504.95;;;26.50;91.70;;;;;;5037197;28;20519;-77
2023/06/23 10:44:50;;;;;;;319.30;303.13;;;26.50;91.70;;;;;;5031631;28;20065;-81
2023/06/23 10:47:17;;;;;;;186.73;178.23;;;26.40;91.80;;;;;;5018883;28;20075;-80
2023/06/23 10:49:44;;;;;;;122.07;116.28;;;26.30;87.70;;;;;;5042316;28;20044;-80
2023/06/23 10:52:11;;;;;;;599.30;563.63;;;26.00;89.20;;;;;;5056234;28;20052;-79
2023/06/23 10:54:37;;;;;;;518.10;486.80;;;25.90;91.50;;;;;;5034521;28;20463;-78
2023/06/23 10:57:11;;;;;;;108.25;103.30;;;26.00;91.20;;;;;;5031708;28;20067;-78
2023/06/23 10:59:42;;;;;;;414.55;390.25;;;26.00;88.10;;;;;;5070070;28;20053;-78
2023/06/23 11:02:09;;;;;;;705.08;661.40;;;26.00;90.20;;;;;;5062404;28;20485;-79
2023/06/23 11:04:49;;;;;;;114.10;108.93;;;26.10;91.90;;;;;;5042393;28;20061;-81
2023/06/23 11:07:15;;;;;;;60.92;57.53;;;26.50;88.50;;;;;;5047295;28;20053;-79
2023/06/23 11:09:58;;;;;;;162.13;154.82;;;26.60;90.30;;;;;;5030927;28;20087;-81
2023/06/23 11:12:40;;;;;;;48.95;46.55;;;26.90;88.20;;;;;;5057804;28;20518;-79
2023/06/23 11:15:24;;;;;;;188.32;179.13;;;27.10;84.70;;;;;;5038118;28;20056;-79
2023/06/23 11:17:59;;;;;;;63.60;60.63;;;27.10;86.50;;;;;;5040399;28;20091;-80
2023/06/23 11:20:24;;;;;;;125.18;119.43;;;27.30;82.50;;;;;;5022358;28;20052;-80
2023/06/23 11:22:59;;;;;;;66.50;63.13;;;27.20;83.10;;;;;;5043430;28;20052;-80
2023/06/23 11:25:32;;;;;;;107.85;102.72;;;27.10;80.30;;;;;;5047970;28;20124;-81
2023/06/23 11:28:36;;;;;;;58.38;55.20;;;27.00;79.20;;;;;;5039407;28;20084;-81
2023/06/23 11:31:05;;;;;;;32.92;31.13;;;26.90;80.00;;;;;;5039996;28;20057;-78
2023/06/23 11:33:32;;;;;;;38.45;36.25;;;26.90;77.10;;;;;;5030031;28;20417;-79
2023/06/23 11:36:12;;;;;;;53.25;50.63;;;26.80;77.50;;;;;;5028271;28;20041;-80
2023/06/23 11:38:40;;;;;;;116.85;111.47;;;26.70;76.90;;;;;;5022950;28;20485;-79
2023/06/23 11:41:06;;;;;;;31.20;29.35;;;26.60;79.50;;;;;;5038611;28;20033;-78
2023/06/23 11:43:33;;;;;;;37.20;35.20;;;26.60;74.70;;;;;;5027834;28;20381;-80
2023/06/23 11:46:10;;;;;;;33.17;31.48;;;26.60;75.10;;;;;;5037927;28;20074;-80
2023/06/23 11:48:36;;;;;;;40.22;38.15;;;26.70;71.60;;;;;;5020414;28;20049;-80
2023/06/23 11:51:03;;;;;;;32.90;31.10;;;26.70;70.60;;;;;;5045152;28;20464;-81
2023/06/23 11:53:29;;;;;;;63.88;60.70;;;26.80;71.80;;;;;;5012351;28;20437;-80
2023/06/23 11:55:56;;;;;;;32.63;30.83;;;26.80;74.40;;;;;;5029260;28;20037;-80
2023/06/23 11:58:22;;;;;;;49.22;46.80;;;27.10;74.40;;;;;;5034180;28;20077;-79
2023/06/23 12:00:47;;;;;;;42.00;39.90;;;27.30;72.40;;;;;;5040309;28;20085;-77
2023/06/23 12:03:14;;;;;;;50.53;48.10;;;27.40;68.00;;;;;;5044765;28;20056;-80
2023/06/23 12:05:41;;;;;;;43.80;41.63;;;27.40;67.20;;;;;;5045807;28;20060;-79
2023/06/23 12:08:07;;;;;;;40.28;38.20;;;27.40;69.00;;;;;;5044772;28;20072;-80
2023/06/23 12:10:40;;;;;;;44.30;42.13;;;27.30;68.80;;;;;;5029223;28;20041;-80
2023/06/23 12:13:10;;;;;;;39.80;37.63;;;27.40;67.70;;;;;;5039595;28;20267;-79
2023/06/23 12:15:41;;;;;;;68.93;65.78;;;27.50;69.00;;;;;;5072977;28;20090;-76
2023/06/23 12:18:08;;;;;;;51.05;48.65;;;27.50;65.90;;;;;;5042472;28;20478;-78
2023/06/23 12:20:42;;;;;;;44.78;42.55;;;27.30;67.20;;;;;;5030179;28;20041;-77